Terminal Aerodrome Forecast
Issued by NWS

Home | Current Version | Previous Version | Text Only | Print | Product List | Glossary On
Versions: 1 2 3 4 5 6 7 8 9 10 11 12 13 14 15 16 17 18 19 20 21 22 23 24 25 26 27 28 29 30 31 32 33 34
000
FTUS45 KGJT 031947 AAA
TAFDRO
TAF AMD
KDRO 031947Z 0320/0418 26008G15KT P6SM SCT050 BKN100
     FM040100 31005KT P6SM FEW100
     FM040400 02003KT P6SM FEW100
     FM041400 VRB03KT P6SM SCT100=

USA.gov is the U.S. government's official web portal to all federal, state and local government web resources and services.